Augustaville, Pennsylvania
Current Conditions -  °F | °C
As of 4:53 PM on Monday 24 Nov 2014 (Local Time) from KSEG Reporting Station
Clear Clear  
Wind Chill: 65°   Ceiling: Unl
Heat Index: 65°   Visibility: 10mi
Dew Point: 51°   Wind: 12mph
Humidity: 61%   Direction: 180°S
Pressure: 29.54"   Gusts: 24mph
Location:  40.83°N, 76.761°W
Report Text: KSEG 242153Z AUTO 18010G21KT 150V220 10SM CLR 18/11 A2954 RMK AO2 SLP003 T01830106
Loading
Personal Weather Stations






























Interactive Weather Map New forecast layout! Learn more

10-Day Weather Forecast

Advertisements
Track Severe Weather on mobile